sensor_id;sensor_type;location;lat;lon;timestamp;P1;durP1;ratioP1;P2;durP2;ratioP2
73264;SDS011;61493;51.008;14.088;2023-04-29T00:00:17;19.38;;;11.38;;
73264;SDS011;61493;51.008;14.088;2023-04-29T00:02:42;18.38;;;11.40;;
73264;SDS011;61493;51.008;14.088;2023-04-29T00:05:07;22.20;;;12.07;;
73264;SDS011;61493;51.008;14.088;2023-04-29T00:07:33;22.27;;;12.55;;
73264;SDS011;61493;51.008;14.088;2023-04-29T00:09:58;26.34;;;12.86;;
73264;SDS011;61493;51.008;14.088;2023-04-29T00:12:23;23.67;;;14.10;;
73264;SDS011;61493;51.008;14.088;2023-04-29T00:14:48;21.50;;;13.27;;
73264;SDS011;61493;51.008;14.088;2023-04-29T00:17:13;24.88;;;14.45;;
73264;SDS011;61493;51.008;14.088;2023-04-29T00:19:39;24.25;;;14.23;;
73264;SDS011;61493;51.008;14.088;2023-04-29T00:22:05;28.42;;;14.77;;
73264;SDS011;61493;51.008;14.088;2023-04-29T00:24:30;22.66;;;14.32;;
73264;SDS011;61493;51.008;14.088;2023-04-29T00:26:55;28.40;;;15.65;;
73264;SDS011;61493;51.008;14.088;2023-04-29T00:29:20;21.00;;;13.02;;
73264;SDS011;61493;51.008;14.088;2023-04-29T00:31:47;23.13;;;13.73;;
73264;SDS011;61493;51.008;14.088;2023-04-29T00:34:12;26.80;;;15.88;;
73264;SDS011;61493;51.008;14.088;2023-04-29T00:36:37;27.45;;;15.57;;
73264;SDS011;61493;51.008;14.088;2023-04-29T00:39:03;25.10;;;16.27;;
73264;SDS011;61493;51.008;14.088;2023-04-29T00:41:28;23.08;;;14.35;;
73264;SDS011;61493;51.008;14.088;2023-04-29T00:43:53;26.80;;;14.60;;
73264;SDS011;61493;51.008;14.088;2023-04-29T00:46:19;28.00;;;14.35;;
73264;SDS011;61493;51.008;14.088;2023-04-29T00:48:44;26.40;;;13.63;;
73264;SDS011;61493;51.008;14.088;2023-04-29T00:51:09;27.25;;;14.82;;
73264;SDS011;61493;51.008;14.088;2023-04-29T00:53:35;29.05;;;15.85;;
73264;SDS011;61493;51.008;14.088;2023-04-29T00:56:00;33.67;;;16.65;;
73264;SDS011;61493;51.008;14.088;2023-04-29T00:58:25;28.25;;;16.85;;
73264;SDS011;61493;51.008;14.088;2023-04-29T01:01:00;32.15;;;17.15;;
73264;SDS011;61493;51.008;14.088;2023-04-29T01:03:26;32.85;;;18.50;;
73264;SDS011;61493;51.008;14.088;2023-04-29T01:05:53;28.33;;;16.77;;
73264;SDS011;61493;51.008;14.088;2023-04-29T01:10:53;28.70;;;15.70;;
73264;SDS011;61493;51.008;14.088;2023-04-29T01:13:24;29.65;;;16.65;;
73264;SDS011;61493;51.008;14.088;2023-04-29T01:18:40;34.53;;;18.73;;
73264;SDS011;61493;51.008;14.088;2023-04-29T01:21:05;32.33;;;17.50;;
73264;SDS011;61493;51.008;14.088;2023-04-29T01:23:30;34.03;;;18.38;;
73264;SDS011;61493;51.008;14.088;2023-04-29T01:25:56;32.50;;;17.98;;
73264;SDS011;61493;51.008;14.088;2023-04-29T01:28:28;46.00;;;23.73;;
73264;SDS011;61493;51.008;14.088;2023-04-29T01:30:59;53.58;;;33.85;;
73264;SDS011;61493;51.008;14.088;2023-04-29T01:33:31;33.70;;;18.73;;
73264;SDS011;61493;51.008;14.088;2023-04-29T01:41:30;34.13;;;19.67;;
73264;SDS011;61493;51.008;14.088;2023-04-29T01:43:58;29.05;;;16.42;;
73264;SDS011;61493;51.008;14.088;2023-04-29T01:46:27;35.20;;;15.80;;
73264;SDS011;61493;51.008;14.088;2023-04-29T01:48:53;31.92;;;18.60;;
73264;SDS011;61493;51.008;14.088;2023-04-29T01:51:18;32.17;;;19.88;;
73264;SDS011;61493;51.008;14.088;2023-04-29T01:53:43;33.82;;;18.46;;
73264;SDS011;61493;51.008;14.088;2023-04-29T01:56:09;31.02;;;17.55;;
73264;SDS011;61493;51.008;14.088;2023-04-29T01:58:34;32.12;;;18.76;;
73264;SDS011;61493;51.008;14.088;2023-04-29T02:00:59;30.75;;;17.05;;
73264;SDS011;61493;51.008;14.088;2023-04-29T02:03:24;36.65;;;20.02;;
73264;SDS011;61493;51.008;14.088;2023-04-29T02:05:49;32.05;;;18.58;;
73264;SDS011;61493;51.008;14.088;2023-04-29T02:08:15;31.35;;;18.20;;
73264;SDS011;61493;51.008;14.088;2023-04-29T02:10:41;33.80;;;19.38;;
73264;SDS011;61493;51.008;14.088;2023-04-29T02:13:06;37.03;;;20.08;;
73264;SDS011;61493;51.008;14.088;2023-04-29T02:15:31;36.22;;;20.05;;
73264;SDS011;61493;51.008;14.088;2023-04-29T02:17:56;37.55;;;18.42;;
73264;SDS011;61493;51.008;14.088;2023-04-29T02:20:21;39.70;;;20.10;;
73264;SDS011;61493;51.008;14.088;2023-04-29T02:22:47;33.38;;;18.58;;
73264;SDS011;61493;51.008;14.088;2023-04-29T02:25:12;42.83;;;20.35;;
73264;SDS011;61493;51.008;14.088;2023-04-29T02:27:37;38.83;;;20.33;;
73264;SDS011;61493;51.008;14.088;2023-04-29T02:30:02;39.40;;;21.00;;
73264;SDS011;61493;51.008;14.088;2023-04-29T02:32:29;37.92;;;22.17;;
73264;SDS011;61493;51.008;14.088;2023-04-29T02:34:54;42.08;;;21.10;;
73264;SDS011;61493;51.008;14.088;2023-04-29T02:37:19;39.33;;;20.65;;
73264;SDS011;61493;51.008;14.088;2023-04-29T02:39:45;35.65;;;20.15;;
73264;SDS011;61493;51.008;14.088;2023-04-29T02:42:10;37.58;;;18.83;;
73264;SDS011;61493;51.008;14.088;2023-04-29T02:44:36;34.97;;;18.83;;
73264;SDS011;61493;51.008;14.088;2023-04-29T02:47:01;38.20;;;19.80;;
73264;SDS011;61493;51.008;14.088;2023-04-29T02:49:26;35.53;;;19.75;;
73264;SDS011;61493;51.008;14.088;2023-04-29T02:51:51;41.63;;;21.10;;
73264;SDS011;61493;51.008;14.088;2023-04-29T02:54:17;43.60;;;22.45;;
73264;SDS011;61493;51.008;14.088;2023-04-29T02:56:42;39.95;;;21.83;;
73264;SDS011;61493;51.008;14.088;2023-04-29T02:59:08;37.33;;;21.08;;
73264;SDS011;61493;51.008;14.088;2023-04-29T03:01:33;42.83;;;21.58;;
73264;SDS011;61493;51.008;14.088;2023-04-29T03:03:58;48.30;;;22.60;;
73264;SDS011;61493;51.008;14.088;2023-04-29T03:06:24;51.75;;;24.02;;
73264;SDS011;61493;51.008;14.088;2023-04-29T03:08:49;38.53;;;20.50;;
73264;SDS011;61493;51.008;14.088;2023-04-29T03:11:15;39.13;;;19.48;;
73264;SDS011;61493;51.008;14.088;2023-04-29T03:13:40;39.72;;;19.38;;
73264;SDS011;61493;51.008;14.088;2023-04-29T03:16:05;43.05;;;20.38;;
73264;SDS011;61493;51.008;14.088;2023-04-29T03:18:30;39.22;;;19.95;;
73264;SDS011;61493;51.008;14.088;2023-04-29T03:20:56;36.22;;;19.83;;
73264;SDS011;61493;51.008;14.088;2023-04-29T03:23:21;34.58;;;17.63;;
73264;SDS011;61493;51.008;14.088;2023-04-29T03:25:46;38.58;;;17.27;;
73264;SDS011;61493;51.008;14.088;2023-04-29T03:28:11;34.67;;;18.63;;
73264;SDS011;61493;51.008;14.088;2023-04-29T03:30:36;37.00;;;19.28;;
73264;SDS011;61493;51.008;14.088;2023-04-29T03:33:02;38.65;;;17.95;;
73264;SDS011;61493;51.008;14.088;2023-04-29T03:35:28;37.25;;;19.02;;
73264;SDS011;61493;51.008;14.088;2023-04-29T03:37:53;36.80;;;19.38;;
73264;SDS011;61493;51.008;14.088;2023-04-29T03:40:18;40.88;;;20.67;;
73264;SDS011;61493;51.008;14.088;2023-04-29T03:42:43;41.10;;;21.17;;
73264;SDS011;61493;51.008;14.088;2023-04-29T03:45:09;40.58;;;18.17;;
73264;SDS011;61493;51.008;14.088;2023-04-29T03:47:34;38.80;;;18.55;;
73264;SDS011;61493;51.008;14.088;2023-04-29T03:50:00;42.78;;;18.58;;
73264;SDS011;61493;51.008;14.088;2023-04-29T03:52:25;40.60;;;19.52;;
73264;SDS011;61493;51.008;14.088;2023-04-29T03:54:50;36.38;;;17.63;;
73264;SDS011;61493;51.008;14.088;2023-04-29T03:57:15;38.47;;;17.15;;
73264;SDS011;61493;51.008;14.088;2023-04-29T03:59:41;39.67;;;18.23;;
73264;SDS011;61493;51.008;14.088;2023-04-29T04:02:06;42.42;;;19.42;;
73264;SDS011;61493;51.008;14.088;2023-04-29T04:04:32;37.58;;;20.52;;
73264;SDS011;61493;51.008;14.088;2023-04-29T04:06:57;37.90;;;19.23;;
73264;SDS011;61493;51.008;14.088;2023-04-29T04:09:23;40.13;;;20.63;;
73264;SDS011;61493;51.008;14.088;2023-04-29T04:11:48;38.83;;;17.38;;
73264;SDS011;61493;51.008;14.088;2023-04-29T04:14:13;39.13;;;18.83;;
73264;SDS011;61493;51.008;14.088;2023-04-29T04:16:38;42.20;;;19.05;;
73264;SDS011;61493;51.008;14.088;2023-04-29T04:19:03;37.47;;;17.55;;
73264;SDS011;61493;51.008;14.088;2023-04-29T04:21:28;35.62;;;18.24;;
73264;SDS011;61493;51.008;14.088;2023-04-29T04:23:54;36.13;;;19.50;;
73264;SDS011;61493;51.008;14.088;2023-04-29T04:26:19;40.13;;;18.33;;
73264;SDS011;61493;51.008;14.088;2023-04-29T04:28:45;39.25;;;18.88;;
73264;SDS011;61493;51.008;14.088;2023-04-29T04:31:10;43.35;;;21.52;;
73264;SDS011;61493;51.008;14.088;2023-04-29T04:33:35;40.85;;;19.17;;
73264;SDS011;61493;51.008;14.088;2023-04-29T04:36:00;49.10;;;20.38;;
73264;SDS011;61493;51.008;14.088;2023-04-29T04:38:26;45.28;;;19.77;;
73264;SDS011;61493;51.008;14.088;2023-04-29T04:40:52;38.38;;;20.52;;
73264;SDS011;61493;51.008;14.088;2023-04-29T04:43:17;41.63;;;18.52;;
73264;SDS011;61493;51.008;14.088;2023-04-29T04:45:42;38.60;;;20.35;;
73264;SDS011;61493;51.008;14.088;2023-04-29T04:48:08;47.33;;;19.58;;
73264;SDS011;61493;51.008;14.088;2023-04-29T04:50:33;45.15;;;18.65;;
73264;SDS011;61493;51.008;14.088;2023-04-29T04:52:58;46.68;;;18.90;;
73264;SDS011;61493;51.008;14.088;2023-04-29T04:55:23;42.30;;;21.83;;
73264;SDS011;61493;51.008;14.088;2023-04-29T04:57:48;41.14;;;20.10;;
73264;SDS011;61493;51.008;14.088;2023-04-29T05:00:14;44.03;;;20.98;;
73264;SDS011;61493;51.008;14.088;2023-04-29T05:02:39;42.55;;;20.10;;
73264;SDS011;61493;51.008;14.088;2023-04-29T05:05:04;38.85;;;18.08;;
73264;SDS011;61493;51.008;14.088;2023-04-29T05:07:29;41.80;;;18.42;;
73264;SDS011;61493;51.008;14.088;2023-04-29T05:09:55;40.78;;;19.38;;
73264;SDS011;61493;51.008;14.088;2023-04-29T05:12:20;37.47;;;18.63;;
73264;SDS011;61493;51.008;14.088;2023-04-29T05:14:45;41.53;;;18.75;;
73264;SDS011;61493;51.008;14.088;2023-04-29T05:17:10;33.47;;;16.77;;
73264;SDS011;61493;51.008;14.088;2023-04-29T05:19:35;36.13;;;17.27;;
73264;SDS011;61493;51.008;14.088;2023-04-29T05:22:01;30.42;;;14.95;;
73264;SDS011;61493;51.008;14.088;2023-04-29T05:24:26;34.50;;;16.30;;
73264;SDS011;61493;51.008;14.088;2023-04-29T05:26:51;28.70;;;15.80;;
73264;SDS011;61493;51.008;14.088;2023-04-29T05:29:18;27.83;;;15.13;;
73264;SDS011;61493;51.008;14.088;2023-04-29T05:31:43;29.05;;;15.23;;
73264;SDS011;61493;51.008;14.088;2023-04-29T05:34:08;32.50;;;15.40;;
73264;SDS011;61493;51.008;14.088;2023-04-29T05:36:33;27.25;;;13.27;;
73264;SDS011;61493;51.008;14.088;2023-04-29T05:38:58;28.48;;;13.07;;
73264;SDS011;61493;51.008;14.088;2023-04-29T05:41:23;28.55;;;13.30;;
73264;SDS011;61493;51.008;14.088;2023-04-29T05:43:49;29.63;;;13.82;;
73264;SDS011;61493;51.008;14.088;2023-04-29T05:46:15;29.00;;;13.27;;
73264;SDS011;61493;51.008;14.088;2023-04-29T05:48:40;38.53;;;14.38;;
73264;SDS011;61493;51.008;14.088;2023-04-29T05:51:06;30.08;;;12.80;;
73264;SDS011;61493;51.008;14.088;2023-04-29T05:53:31;29.13;;;13.52;;
73264;SDS011;61493;51.008;14.088;2023-04-29T05:58:30;25.33;;;13.43;;
73264;SDS011;61493;51.008;14.088;2023-04-29T06:00:55;27.52;;;12.98;;
73264;SDS011;61493;51.008;14.088;2023-04-29T06:03:20;26.48;;;13.70;;
73264;SDS011;61493;51.008;14.088;2023-04-29T06:05:45;25.10;;;13.07;;
73264;SDS011;61493;51.008;14.088;2023-04-29T06:08:11;24.47;;;12.00;;
73264;SDS011;61493;51.008;14.088;2023-04-29T06:10:36;28.20;;;14.43;;
73264;SDS011;61493;51.008;14.088;2023-04-29T06:13:01;23.90;;;12.25;;
73264;SDS011;61493;51.008;14.088;2023-04-29T06:15:27;24.97;;;11.57;;
73264;SDS011;61493;51.008;14.088;2023-04-29T06:17:52;25.05;;;12.98;;
73264;SDS011;61493;51.008;14.088;2023-04-29T06:20:17;24.42;;;11.93;;
73264;SDS011;61493;51.008;14.088;2023-04-29T06:22:42;23.52;;;11.38;;
73264;SDS011;61493;51.008;14.088;2023-04-29T06:25:07;22.85;;;12.52;;
73264;SDS011;61493;51.008;14.088;2023-04-29T06:27:33;23.27;;;12.10;;
73264;SDS011;61493;51.008;14.088;2023-04-29T06:29:58;24.83;;;12.02;;
73264;SDS011;61493;51.008;14.088;2023-04-29T06:32:23;25.92;;;12.13;;
73264;SDS011;61493;51.008;14.088;2023-04-29T06:34:48;20.27;;;11.68;;
73264;SDS011;61493;51.008;14.088;2023-04-29T06:37:14;20.30;;;10.63;;
73264;SDS011;61493;51.008;14.088;2023-04-29T06:39:39;22.07;;;11.60;;
73264;SDS011;61493;51.008;14.088;2023-04-29T06:42:04;23.35;;;11.63;;
73264;SDS011;61493;51.008;14.088;2023-04-29T06:44:29;18.95;;;10.32;;
73264;SDS011;61493;51.008;14.088;2023-04-29T06:46:55;20.90;;;11.27;;
73264;SDS011;61493;51.008;14.088;2023-04-29T06:49:20;17.75;;;9.65;;
73264;SDS011;61493;51.008;14.088;2023-04-29T06:51:45;18.10;;;10.68;;
73264;SDS011;61493;51.008;14.088;2023-04-29T06:54:11;18.88;;;9.93;;
73264;SDS011;61493;51.008;14.088;2023-04-29T06:56:36;18.70;;;10.93;;
73264;SDS011;61493;51.008;14.088;2023-04-29T06:59:03;17.45;;;8.98;;
73264;SDS011;61493;51.008;14.088;2023-04-29T07:01:32;16.77;;;9.60;;
73264;SDS011;61493;51.008;14.088;2023-04-29T07:03:57;17.88;;;9.23;;
73264;SDS011;61493;51.008;14.088;2023-04-29T07:06:22;14.40;;;8.50;;
73264;SDS011;61493;51.008;14.088;2023-04-29T07:08:47;17.15;;;9.35;;
73264;SDS011;61493;51.008;14.088;2023-04-29T07:11:13;13.73;;;8.70;;
73264;SDS011;61493;51.008;14.088;2023-04-29T07:13:38;13.63;;;8.97;;
73264;SDS011;61493;51.008;14.088;2023-04-29T07:16:03;14.63;;;8.80;;
73264;SDS011;61493;51.008;14.088;2023-04-29T07:18:28;13.88;;;9.13;;
73264;SDS011;61493;51.008;14.088;2023-04-29T07:20:54;20.13;;;11.43;;
73264;SDS011;61493;51.008;14.088;2023-04-29T07:23:19;15.45;;;8.55;;
73264;SDS011;61493;51.008;14.088;2023-04-29T07:25:44;17.45;;;9.45;;
73264;SDS011;61493;51.008;14.088;2023-04-29T07:28:10;15.52;;;8.10;;
73264;SDS011;61493;51.008;14.088;2023-04-29T07:30:35;15.45;;;8.93;;
73264;SDS011;61493;51.008;14.088;2023-04-29T07:33:00;16.45;;;9.43;;
73264;SDS011;61493;51.008;14.088;2023-04-29T07:35:26;15.25;;;9.40;;
73264;SDS011;61493;51.008;14.088;2023-04-29T07:37:51;14.93;;;9.15;;
73264;SDS011;61493;51.008;14.088;2023-04-29T07:40:16;13.68;;;8.73;;
73264;SDS011;61493;51.008;14.088;2023-04-29T07:42:42;13.23;;;8.50;;
73264;SDS011;61493;51.008;14.088;2023-04-29T07:45:07;14.73;;;9.02;;
73264;SDS011;61493;51.008;14.088;2023-04-29T07:47:32;14.35;;;8.93;;
73264;SDS011;61493;51.008;14.088;2023-04-29T07:49:57;17.05;;;9.45;;
73264;SDS011;61493;51.008;14.088;2023-04-29T07:52:23;17.00;;;9.52;;
73264;SDS011;61493;51.008;14.088;2023-04-29T07:54:48;14.50;;;9.90;;
73264;SDS011;61493;51.008;14.088;2023-04-29T07:57:13;15.18;;;9.70;;
73264;SDS011;61493;51.008;14.088;2023-04-29T07:59:38;15.70;;;10.40;;
73264;SDS011;61493;51.008;14.088;2023-04-29T08:02:04;16.87;;;9.77;;
73264;SDS011;61493;51.008;14.088;2023-04-29T08:04:29;14.27;;;9.07;;
73264;SDS011;61493;51.008;14.088;2023-04-29T08:06:54;14.07;;;9.13;;
73264;SDS011;61493;51.008;14.088;2023-04-29T08:09:19;16.65;;;9.55;;
73264;SDS011;61493;51.008;14.088;2023-04-29T08:11:45;17.73;;;11.45;;
73264;SDS011;61493;51.008;14.088;2023-04-29T08:14:10;17.00;;;9.82;;
73264;SDS011;61493;51.008;14.088;2023-04-29T08:16:35;16.33;;;9.50;;
73264;SDS011;61493;51.008;14.088;2023-04-29T08:19:00;14.07;;;7.90;;
73264;SDS011;61493;51.008;14.088;2023-04-29T08:21:26;12.80;;;7.28;;
73264;SDS011;61493;51.008;14.088;2023-04-29T08:23:51;15.30;;;8.73;;
73264;SDS011;61493;51.008;14.088;2023-04-29T08:26:17;15.05;;;9.13;;
73264;SDS011;61493;51.008;14.088;2023-04-29T08:28:42;15.20;;;9.23;;
73264;SDS011;61493;51.008;14.088;2023-04-29T08:31:08;14.52;;;8.73;;
73264;SDS011;61493;51.008;14.088;2023-04-29T08:33:40;17.33;;;9.15;;
73264;SDS011;61493;51.008;14.088;2023-04-29T08:36:06;16.23;;;9.02;;
73264;SDS011;61493;51.008;14.088;2023-04-29T08:38:32;13.70;;;8.50;;
73264;SDS011;61493;51.008;14.088;2023-04-29T08:40:57;11.50;;;7.35;;
73264;SDS011;61493;51.008;14.088;2023-04-29T08:43:23;12.88;;;8.35;;
73264;SDS011;61493;51.008;14.088;2023-04-29T08:45:48;10.15;;;5.90;;
73264;SDS011;61493;51.008;14.088;2023-04-29T08:48:14;11.23;;;6.60;;
73264;SDS011;61493;51.008;14.088;2023-04-29T08:50:40;8.68;;;5.22;;
73264;SDS011;61493;51.008;14.088;2023-04-29T08:53:06;7.93;;;4.60;;
73264;SDS011;61493;51.008;14.088;2023-04-29T08:55:34;7.93;;;5.00;;
73264;SDS011;61493;51.008;14.088;2023-04-29T08:58:00;10.63;;;5.18;;
73264;SDS011;61493;51.008;14.088;2023-04-29T09:00:25;8.82;;;5.22;;
73264;SDS011;61493;51.008;14.088;2023-04-29T09:02:52;9.35;;;6.10;;
73264;SDS011;61493;51.008;14.088;2023-04-29T09:05:20;8.25;;;5.38;;
73264;SDS011;61493;51.008;14.088;2023-04-29T09:07:46;10.18;;;5.50;;
73264;SDS011;61493;51.008;14.088;2023-04-29T09:10:11;11.35;;;6.07;;
73264;SDS011;61493;51.008;14.088;2023-04-29T09:12:37;8.70;;;6.20;;
73264;SDS011;61493;51.008;14.088;2023-04-29T09:15:02;8.38;;;5.30;;
73264;SDS011;61493;51.008;14.088;2023-04-29T09:17:44;10.00;;;6.05;;
73264;SDS011;61493;51.008;14.088;2023-04-29T09:25:39;10.40;;;6.03;;
73264;SDS011;61493;51.008;14.088;2023-04-29T09:28:13;9.80;;;6.35;;
73264;SDS011;61493;51.008;14.088;2023-04-29T09:30:45;10.93;;;7.00;;
73264;SDS011;61493;51.008;14.088;2023-04-29T09:33:11;9.88;;;5.97;;
73264;SDS011;61493;51.008;14.088;2023-04-29T09:35:39;10.10;;;6.78;;
73264;SDS011;61493;51.008;14.088;2023-04-29T09:38:08;10.90;;;7.22;;
73264;SDS011;61493;51.008;14.088;2023-04-29T09:40:34;10.82;;;7.03;;
73264;SDS011;61493;51.008;14.088;2023-04-29T09:43:00;11.77;;;7.00;;
73264;SDS011;61493;51.008;14.088;2023-04-29T09:45:38;11.00;;;7.22;;
73264;SDS011;61493;51.008;14.088;2023-04-29T09:48:04;11.60;;;7.50;;
73264;SDS011;61493;51.008;14.088;2023-04-29T09:50:30;7.68;;;5.10;;
73264;SDS011;61493;51.008;14.088;2023-04-29T09:52:56;9.00;;;5.45;;
73264;SDS011;61493;51.008;14.088;2023-04-29T09:55:21;10.55;;;5.65;;
73264;SDS011;61493;51.008;14.088;2023-04-29T09:57:46;8.10;;;5.30;;
73264;SDS011;61493;51.008;14.088;2023-04-29T10:00:12;9.55;;;5.90;;
73264;SDS011;61493;51.008;14.088;2023-04-29T10:02:39;9.48;;;6.10;;
73264;SDS011;61493;51.008;14.088;2023-04-29T10:05:05;10.13;;;6.38;;
73264;SDS011;61493;51.008;14.088;2023-04-29T10:07:31;9.98;;;5.80;;
73264;SDS011;61493;51.008;14.088;2023-04-29T10:09:56;12.32;;;6.40;;
73264;SDS011;61493;51.008;14.088;2023-04-29T10:12:22;9.60;;;6.25;;
73264;SDS011;61493;51.008;14.088;2023-04-29T10:14:56;10.27;;;6.13;;
73264;SDS011;61493;51.008;14.088;2023-04-29T10:17:23;9.77;;;5.50;;
73264;SDS011;61493;51.008;14.088;2023-04-29T10:20:11;8.63;;;5.43;;
73264;SDS011;61493;51.008;14.088;2023-04-29T10:22:39;9.85;;;5.60;;
73264;SDS011;61493;51.008;14.088;2023-04-29T10:25:06;11.35;;;6.18;;
73264;SDS011;61493;51.008;14.088;2023-04-29T10:27:33;11.43;;;6.45;;
73264;SDS011;61493;51.008;14.088;2023-04-29T10:30:01;10.40;;;5.55;;
73264;SDS011;61493;51.008;14.088;2023-04-29T10:32:31;8.63;;;5.45;;
73264;SDS011;61493;51.008;14.088;2023-04-29T10:34:58;9.57;;;5.65;;
73264;SDS011;61493;51.008;14.088;2023-04-29T10:37:24;9.63;;;5.65;;
73264;SDS011;61493;51.008;14.088;2023-04-29T10:42:35;10.32;;;5.10;;
73264;SDS011;61493;51.008;14.088;2023-04-29T10:45:20;9.60;;;5.93;;
73264;SDS011;61493;51.008;14.088;2023-04-29T10:50:30;11.40;;;6.18;;
73264;SDS011;61493;51.008;14.088;2023-04-29T10:52:55;9.48;;;6.30;;
73264;SDS011;61493;51.008;14.088;2023-04-29T10:55:22;9.60;;;6.00;;
73264;SDS011;61493;51.008;14.088;2023-04-29T10:57:47;11.02;;;5.70;;
73264;SDS011;61493;51.008;14.088;2023-04-29T11:00:21;11.57;;;6.27;;
73264;SDS011;61493;51.008;14.088;2023-04-29T11:02:47;9.68;;;5.75;;
73264;SDS011;61493;51.008;14.088;2023-04-29T11:05:13;10.55;;;6.47;;
73264;SDS011;61493;51.008;14.088;2023-04-29T11:07:38;9.20;;;6.40;;
73264;SDS011;61493;51.008;14.088;2023-04-29T11:10:03;10.15;;;6.30;;
73264;SDS011;61493;51.008;14.088;2023-04-29T11:12:29;12.70;;;7.03;;
73264;SDS011;61493;51.008;14.088;2023-04-29T11:14:54;10.98;;;7.10;;
73264;SDS011;61493;51.008;14.088;2023-04-29T11:17:26;11.70;;;6.47;;
73264;SDS011;61493;51.008;14.088;2023-04-29T11:19:58;13.02;;;7.57;;
73264;SDS011;61493;51.008;14.088;2023-04-29T11:22:25;12.10;;;7.70;;
73264;SDS011;61493;51.008;14.088;2023-04-29T11:24:52;15.25;;;8.57;;
73264;SDS011;61493;51.008;14.088;2023-04-29T11:27:18;14.57;;;8.82;;
73264;SDS011;61493;51.008;14.088;2023-04-29T11:29:44;12.85;;;8.00;;
73264;SDS011;61493;51.008;14.088;2023-04-29T11:32:10;11.55;;;7.80;;
73264;SDS011;61493;51.008;14.088;2023-04-29T11:34:35;12.98;;;7.35;;
73264;SDS011;61493;51.008;14.088;2023-04-29T11:37:00;13.63;;;7.53;;
73264;SDS011;61493;51.008;14.088;2023-04-29T11:39:26;12.43;;;7.15;;
73264;SDS011;61493;51.008;14.088;2023-04-29T11:42:01;13.35;;;7.32;;
73264;SDS011;61493;51.008;14.088;2023-04-29T11:44:26;12.93;;;7.95;;
73264;SDS011;61493;51.008;14.088;2023-04-29T11:46:52;12.88;;;6.50;;
73264;SDS011;61493;51.008;14.088;2023-04-29T11:49:18;12.65;;;7.55;;
73264;SDS011;61493;51.008;14.088;2023-04-29T11:51:44;12.45;;;7.07;;
73264;SDS011;61493;51.008;14.088;2023-04-29T11:54:09;13.43;;;7.10;;
73264;SDS011;61493;51.008;14.088;2023-04-29T11:59:10;13.70;;;8.82;;
73264;SDS011;61493;51.008;14.088;2023-04-29T12:01:38;13.68;;;8.10;;
73264;SDS011;61493;51.008;14.088;2023-04-29T12:04:03;8.85;;;6.40;;
73264;SDS011;61493;51.008;14.088;2023-04-29T12:06:29;11.07;;;6.82;;
73264;SDS011;61493;51.008;14.088;2023-04-29T12:08:59;10.65;;;6.80;;
73264;SDS011;61493;51.008;14.088;2023-04-29T12:11:25;16.35;;;10.55;;
73264;SDS011;61493;51.008;14.088;2023-04-29T12:13:51;12.05;;;8.32;;
73264;SDS011;61493;51.008;14.088;2023-04-29T12:16:16;10.02;;;6.82;;
73264;SDS011;61493;51.008;14.088;2023-04-29T12:18:41;7.88;;;5.40;;
73264;SDS011;61493;51.008;14.088;2023-04-29T12:21:07;12.98;;;11.43;;
73264;SDS011;61493;51.008;14.088;2023-04-29T12:23:32;8.73;;;7.03;;
73264;SDS011;61493;51.008;14.088;2023-04-29T12:25:59;7.70;;;5.40;;
73264;SDS011;61493;51.008;14.088;2023-04-29T12:28:25;5.85;;;4.18;;
73264;SDS011;61493;51.008;14.088;2023-04-29T12:30:52;5.78;;;4.10;;
73264;SDS011;61493;51.008;14.088;2023-04-29T12:33:21;6.15;;;4.15;;
73264;SDS011;61493;51.008;14.088;2023-04-29T12:35:47;6.20;;;4.18;;
73264;SDS011;61493;51.008;14.088;2023-04-29T12:38:14;7.13;;;4.63;;
73264;SDS011;61493;51.008;14.088;2023-04-29T12:40:40;6.15;;;3.70;;
73264;SDS011;61493;51.008;14.088;2023-04-29T12:43:06;7.20;;;4.07;;
73264;SDS011;61493;51.008;14.088;2023-04-29T12:45:32;5.80;;;4.18;;
73264;SDS011;61493;51.008;14.088;2023-04-29T12:47:58;6.15;;;4.32;;
73264;SDS011;61493;51.008;14.088;2023-04-29T12:50:33;6.10;;;3.88;;
73264;SDS011;61493;51.008;14.088;2023-04-29T12:52:59;6.28;;;4.38;;
73264;SDS011;61493;51.008;14.088;2023-04-29T12:55:24;8.52;;;4.38;;
73264;SDS011;61493;51.008;14.088;2023-04-29T12:57:49;6.22;;;4.13;;
73264;SDS011;61493;51.008;14.088;2023-04-29T13:00:15;5.78;;;4.00;;
73264;SDS011;61493;51.008;14.088;2023-04-29T13:02:40;6.25;;;4.07;;
73264;SDS011;61493;51.008;14.088;2023-04-29T13:05:05;5.50;;;4.13;;
73264;SDS011;61493;51.008;14.088;2023-04-29T13:07:31;7.00;;;4.65;;
73264;SDS011;61493;51.008;14.088;2023-04-29T13:09:56;6.32;;;4.60;;
73264;SDS011;61493;51.008;14.088;2023-04-29T13:12:21;6.40;;;4.40;;
73264;SDS011;61493;51.008;14.088;2023-04-29T13:14:46;8.27;;;4.97;;
73264;SDS011;61493;51.008;14.088;2023-04-29T13:17:11;7.68;;;5.15;;
73264;SDS011;61493;51.008;14.088;2023-04-29T13:19:37;6.55;;;5.15;;
73264;SDS011;61493;51.008;14.088;2023-04-29T13:22:02;8.40;;;5.45;;
73264;SDS011;61493;51.008;14.088;2023-04-29T13:24:27;8.88;;;5.47;;
73264;SDS011;61493;51.008;14.088;2023-04-29T13:26:52;8.25;;;5.45;;
73264;SDS011;61493;51.008;14.088;2023-04-29T13:29:18;9.50;;;5.57;;
73264;SDS011;61493;51.008;14.088;2023-04-29T13:31:43;7.13;;;5.45;;
73264;SDS011;61493;51.008;14.088;2023-04-29T13:34:11;7.93;;;5.28;;
73264;SDS011;61493;51.008;14.088;2023-04-29T13:36:36;7.93;;;5.15;;
73264;SDS011;61493;51.008;14.088;2023-04-29T13:39:02;6.55;;;4.72;;
73264;SDS011;61493;51.008;14.088;2023-04-29T13:41:27;10.02;;;6.68;;
73264;SDS011;61493;51.008;14.088;2023-04-29T13:43:53;7.75;;;5.28;;
73264;SDS011;61493;51.008;14.088;2023-04-29T13:46:18;9.65;;;5.80;;
73264;SDS011;61493;51.008;14.088;2023-04-29T13:48:43;10.80;;;6.68;;
73264;SDS011;61493;51.008;14.088;2023-04-29T13:51:08;9.45;;;6.45;;
73264;SDS011;61493;51.008;14.088;2023-04-29T13:53:34;10.80;;;7.18;;
73264;SDS011;61493;51.008;14.088;2023-04-29T13:55:59;10.13;;;6.85;;
73264;SDS011;61493;51.008;14.088;2023-04-29T13:58:24;11.20;;;7.90;;
73264;SDS011;61493;51.008;14.088;2023-04-29T14:00:49;11.50;;;7.63;;
73264;SDS011;61493;51.008;14.088;2023-04-29T14:03:14;12.95;;;8.25;;
73264;SDS011;61493;51.008;14.088;2023-04-29T14:05:42;14.18;;;9.18;;
73264;SDS011;61493;51.008;14.088;2023-04-29T14:08:07;16.30;;;9.73;;
73264;SDS011;61493;51.008;14.088;2023-04-29T14:10:32;16.35;;;9.32;;
73264;SDS011;61493;51.008;14.088;2023-04-29T14:12:58;17.25;;;10.52;;
73264;SDS011;61493;51.008;14.088;2023-04-29T14:15:23;21.75;;;11.68;;
73264;SDS011;61493;51.008;14.088;2023-04-29T14:17:49;23.08;;;10.15;;
73264;SDS011;61493;51.008;14.088;2023-04-29T14:20:14;19.23;;;10.55;;
73264;SDS011;61493;51.008;14.088;2023-04-29T14:22:40;16.83;;;9.60;;
73264;SDS011;61493;51.008;14.088;2023-04-29T14:25:05;16.30;;;9.27;;
73264;SDS011;61493;51.008;14.088;2023-04-29T14:27:30;23.30;;;10.88;;
73264;SDS011;61493;51.008;14.088;2023-04-29T14:29:56;22.75;;;10.43;;
73264;SDS011;61493;51.008;14.088;2023-04-29T14:32:21;19.08;;;9.93;;
73264;SDS011;61493;51.008;14.088;2023-04-29T14:34:46;22.15;;;10.50;;
73264;SDS011;61493;51.008;14.088;2023-04-29T14:37:11;19.80;;;10.57;;